DAL1997 TJSJ-KJFK
Flight info
| Callsign | DAL1997 |
|---|---|
| Flight time | N/A |
| Altitude | FL320 |
| Route | ACONY3 PALDE DONQU LUCTI L454 OKONU YAALE Y495 CAMRN |
| Aircraft | B703/H-S/N |
Departure
| Time | 2026-04-29 02:37 |
|---|---|
| Airport | Luis Munoz Marin International Airport (TJSJ) |
Arrival
| Time | N/A |
|---|---|
| Airport | John F. Kennedy International Airport (KJFK) |
| Time | Latitude | Longitude | Altitude | Speed | Heading |
|---|---|---|---|---|---|
| 2026-04-29 02:15 | 18.44033 | -66.00523 | 17 ft | 0 kts | 157° |
| 2026-04-29 02:24 | 18.44037 | -66.00524 | 17 ft | 2 kts | 157° |
| 2026-04-29 02:24 | 18.44051 | -66.00531 | 17 ft | 3 kts | 157° |
| 2026-04-29 02:25 | 18.44064 | -66.00536 | 17 ft | 0 kts | 157° |
| 2026-04-29 02:25 | 18.44068 | -66.00538 | 17 ft | 2 kts | 157° |
| 2026-04-29 02:25 | 18.44081 | -66.00547 | 17 ft | 3 kts | 121° |
| 2026-04-29 02:25 | 18.44088 | -66.00560 | 17 ft | 3 kts | 119° |
| 2026-04-29 02:26 | 18.44096 | -66.00575 | 17 ft | 0 kts | 119° |
| 2026-04-29 02:26 | 18.44101 | -66.00584 | 17 ft | 2 kts | 118° |
| 2026-04-29 02:26 | 18.44102 | -66.00598 | 17 ft | 0 kts | 68° |
| 2026-04-29 02:26 | 18.44103 | -66.00598 | 17 ft | 0 kts | 68° |
| 2026-04-29 02:27 | 18.44103 | -66.00597 | 17 ft | 0 kts | 68° |
| 2026-04-29 02:28 | 18.44106 | -66.00589 | 17 ft | 3 kts | 60° |
| 2026-04-29 02:28 | 18.44135 | -66.00544 | 17 ft | 11 kts | 67° |
| 2026-04-29 02:28 | 18.44165 | -66.00458 | 17 ft | 13 kts | 63° |
| 2026-04-29 02:28 | 18.44213 | -66.00362 | 17 ft | 17 kts | 70° |
| 2026-04-29 02:29 | 18.44249 | -66.00271 | 17 ft | 14 kts | 84° |
| 2026-04-29 02:29 | 18.44184 | -66.00202 | 17 ft | 16 kts | 158° |
| 2026-04-29 02:29 | 18.44071 | -66.00158 | 17 ft | 19 kts | 156° |
| 2026-04-29 02:29 | 18.43943 | -66.00092 | 17 ft | 22 kts | 152° |
| 2026-04-29 02:30 | 18.43804 | -66.00033 | 17 ft | 24 kts | 158° |
| 2026-04-29 02:30 | 18.43652 | -65.99971 | 17 ft | 24 kts | 147° |
| 2026-04-29 02:30 | 18.43506 | -65.99905 | 17 ft | 20 kts | 123° |
| 2026-04-29 02:30 | 18.43452 | -65.99781 | 17 ft | 18 kts | 64° |
| 2026-04-29 02:31 | 18.43462 | -65.99652 | 17 ft | 19 kts | 88° |
| 2026-04-29 02:31 | 18.43457 | -65.99506 | 17 ft | 21 kts | 79° |
| 2026-04-29 02:31 | 18.43461 | -65.99348 | 17 ft | 23 kts | 94° |
| 2026-04-29 02:31 | 18.43458 | -65.99264 | 17 ft | 23 kts | 82° |
| 2026-04-29 02:32 | 18.43457 | -65.99103 | 17 ft | 16 kts | 95° |
| 2026-04-29 02:32 | 18.43438 | -65.99076 | 17 ft | 0 kts | 172° |
| 2026-04-29 02:33 | 18.43437 | -65.99076 | 17 ft | 0 kts | 172° |
| 2026-04-29 02:33 | 18.43432 | -65.99075 | 17 ft | 3 kts | 174° |
| 2026-04-29 02:33 | 18.43390 | -65.99073 | 17 ft | 9 kts | 179° |
| 2026-04-29 02:34 | 18.43351 | -65.99110 | 17 ft | 3 kts | 266° |
| 2026-04-29 02:34 | 18.43350 | -65.99133 | 17 ft | 11 kts | 269° |
| 2026-04-29 02:34 | 18.43350 | -65.99305 | 17 ft | 36 kts | 270° |
| 2026-04-29 02:34 | 18.43350 | -65.99659 | 17 ft | 60 kts | 270° |
| 2026-04-29 02:35 | 18.43346 | -66.00173 | 17 ft | 80 kts | 271° |
| 2026-04-29 02:35 | 18.43351 | -66.00821 | 17 ft | 97 kts | 273° |
| 2026-04-29 02:35 | 18.43347 | -66.01587 | 17 ft | 112 kts | 269° |
| 2026-04-29 02:35 | 18.43350 | -66.02456 | 15 ft | 125 kts | 270° |
| 2026-04-29 02:36 | 18.43348 | -66.03393 | 290 ft | 132 kts | 270° |
| 2026-04-29 02:36 | 18.43349 | -66.04722 | 184 ft | 202 kts | 270° |
| 2026-04-29 02:36 | 18.43363 | -66.06070 | 576 ft | 172 kts | 270° |
| 2026-04-29 02:36 | 18.43381 | -66.06862 | 603 ft | 170 kts | 271° |
| 2026-04-29 02:37 | 18.43423 | -66.08067 | 799 ft | 161 kts | 272° |
| 2026-04-29 02:37 | 18.43485 | -66.09212 | 1024 ft | 153 kts | 273° |
| 2026-04-29 02:37 | 18.43565 | -66.10298 | 1242 ft | 145 kts | 274° |
| 2026-04-29 02:37 | 18.43665 | -66.11334 | 1412 ft | 142 kts | 276° |
| 2026-04-29 02:38 | 18.43791 | -66.12303 | 1511 ft | 142 kts | 278° |
| 2026-04-29 02:38 | 18.43944 | -66.13261 | 1549 ft | 148 kts | 279° |
| 2026-04-29 02:38 | 18.44184 | -66.14488 | 1161 ft | 197 kts | 282° |
| 2026-04-29 02:38 | 18.44386 | -66.16075 | 838 ft | 241 kts | 274° |
| 2026-04-29 02:39 | 18.44501 | -66.17956 | 646 ft | 274 kts | 272° |
| 2026-04-29 02:39 | 18.44595 | -66.20028 | 435 ft | 303 kts | 272° |
| 2026-04-29 02:39 | 18.44688 | -66.22311 | 555 ft | 317 kts | 272° |
| 2026-04-29 02:39 | 18.44821 | -66.24678 | 628 ft | 331 kts | 273° |
| 2026-04-29 02:40 | 18.44863 | -66.25391 | 652 ft | 335 kts | 273° |